Capitol Logistics 286


KAFW
Fort Worth Alliance Airport
Fort Worth, Texas, US
KSEA
Seattle-Tacoma International Airport
Seattle, Washington, US

Activity Log

Date Flight Route Aircraft Duration
04/14/2020 CPX286 SWABR5 HUDAD PNH ALS JNC TCH TWF BKE PDT CHINS3 B763 4h 19m

Route Details

Aircraft Information
Primary: Boeing 767-300BDSF
Backup: Not Available
Route Data
Distance: 1428nm
Sched. Duration: 3h 45m
Avg. Duration: 4h 19m (+74m)
Times Flown: 1
Recm'd Route: SWABR5 HUDAD PNH ALS JNC TCH TWF BKE PDT CHINS3
Planned Altitude: 34,000ft
Origin Wx: KAFW 061153Z 23007KT 10SM TS SCT027 SCT034CB BKN050 BKN130 BKN170 24/22 A2989 RMK AO2 PK WND 25026/1124 LTG DSNT E-S RAE44 TSB07 SLP108 OCNL LTGICCC OHD-E-S-W TS OHD-E-S-W MOV E P0000 60000 70016 T02390222 10267 20233 51020
Dest. Wx: KSEA 061153Z 20005KT 10SM BKN055 13/09 A3007 RMK AO2 SLP189 T01330094 10150 20128 58003
Notes:

Financial History
Total Freight: 105,124lbs
Average Load: 105,124lbs/flt
Fuel Used: 44,540lbs
Avg. Fuel Used: 44,540lbs/flt
Fuel Expense: $36,077
Avg. Fuel Expense: $36,077
Avg. Fuel Cost: $0.81/lbs
Total Gross Income: $149,276
Pilot Pay: $239
Total Expenses: $16,174
Total Revenue: $96,023
Average Revenue: $149,276.08